sensor_id;sensor_type;location;lat;lon;timestamp;P1;durP1;ratioP1;P2;durP2;ratioP2
14688;SDS011;7432;48.728;9.154;2023-03-17T00:02:18;7.77;;;6.80;;
14688;SDS011;7432;48.728;9.154;2023-03-17T00:04:46;7.97;;;7.10;;
14688;SDS011;7432;48.728;9.154;2023-03-17T00:07:13;7.53;;;6.93;;
14688;SDS011;7432;48.728;9.154;2023-03-17T00:09:41;7.77;;;7.10;;
14688;SDS011;7432;48.728;9.154;2023-03-17T00:12:08;8.13;;;7.40;;
14688;SDS011;7432;48.728;9.154;2023-03-17T00:14:36;7.60;;;6.93;;
14688;SDS011;7432;48.728;9.154;2023-03-17T00:17:03;7.87;;;7.17;;
14688;SDS011;7432;48.728;9.154;2023-03-17T00:19:32;7.70;;;6.90;;
14688;SDS011;7432;48.728;9.154;2023-03-17T00:22:00;8.20;;;7.40;;
14688;SDS011;7432;48.728;9.154;2023-03-17T00:24:31;8.30;;;7.50;;
14688;SDS011;7432;48.728;9.154;2023-03-17T00:26:57;8.37;;;7.63;;
14688;SDS011;7432;48.728;9.154;2023-03-17T00:29:24;9.73;;;7.03;;
14688;SDS011;7432;48.728;9.154;2023-03-17T00:31:50;7.63;;;6.93;;
14688;SDS011;7432;48.728;9.154;2023-03-17T00:34:18;8.50;;;7.70;;
14688;SDS011;7432;48.728;9.154;2023-03-17T00:36:46;7.67;;;6.97;;
14688;SDS011;7432;48.728;9.154;2023-03-17T00:39:14;8.83;;;6.97;;
14688;SDS011;7432;48.728;9.154;2023-03-17T00:41:41;7.67;;;6.97;;
14688;SDS011;7432;48.728;9.154;2023-03-17T00:44:08;7.70;;;6.90;;
14688;SDS011;7432;48.728;9.154;2023-03-17T00:46:34;7.43;;;6.63;;
14688;SDS011;7432;48.728;9.154;2023-03-17T00:49:02;7.83;;;7.03;;
14688;SDS011;7432;48.728;9.154;2023-03-17T00:51:37;7.27;;;6.50;;
14688;SDS011;7432;48.728;9.154;2023-03-17T00:54:05;7.20;;;6.60;;
14688;SDS011;7432;48.728;9.154;2023-03-17T00:56:32;7.13;;;6.50;;
14688;SDS011;7432;48.728;9.154;2023-03-17T00:58:59;7.77;;;7.00;;
14688;SDS011;7432;48.728;9.154;2023-03-17T01:01:25;7.50;;;6.70;;
14688;SDS011;7432;48.728;9.154;2023-03-17T01:03:51;7.33;;;6.40;;
14688;SDS011;7432;48.728;9.154;2023-03-17T01:06:18;7.40;;;6.70;;
14688;SDS011;7432;48.728;9.154;2023-03-17T01:08:44;9.13;;;7.07;;
14688;SDS011;7432;48.728;9.154;2023-03-17T01:11:13;8.30;;;7.50;;
14688;SDS011;7432;48.728;9.154;2023-03-17T01:13:42;7.83;;;7.13;;
14688;SDS011;7432;48.728;9.154;2023-03-17T01:16:09;8.03;;;7.23;;
14688;SDS011;7432;48.728;9.154;2023-03-17T01:18:36;8.10;;;7.40;;
14688;SDS011;7432;48.728;9.154;2023-03-17T01:21:03;7.40;;;6.70;;
14688;SDS011;7432;48.728;9.154;2023-03-17T01:23:30;7.60;;;6.83;;
14688;SDS011;7432;48.728;9.154;2023-03-17T01:25:57;7.83;;;7.03;;
14688;SDS011;7432;48.728;9.154;2023-03-17T01:28:24;8.07;;;7.30;;
14688;SDS011;7432;48.728;9.154;2023-03-17T01:30:52;7.40;;;6.70;;
14688;SDS011;7432;48.728;9.154;2023-03-17T01:33:18;8.03;;;7.20;;
14688;SDS011;7432;48.728;9.154;2023-03-17T01:35:44;8.30;;;6.87;;
14688;SDS011;7432;48.728;9.154;2023-03-17T01:38:11;7.57;;;6.90;;
14688;SDS011;7432;48.728;9.154;2023-03-17T01:40:41;7.60;;;6.63;;
14688;SDS011;7432;48.728;9.154;2023-03-17T01:43:20;7.90;;;7.20;;
14688;SDS011;7432;48.728;9.154;2023-03-17T01:48:49;7.53;;;6.77;;
14688;SDS011;7432;48.728;9.154;2023-03-17T01:51:23;7.93;;;7.23;;
14688;SDS011;7432;48.728;9.154;2023-03-17T01:53:55;8.43;;;7.27;;
14688;SDS011;7432;48.728;9.154;2023-03-17T01:56:24;7.87;;;7.00;;
14688;SDS011;7432;48.728;9.154;2023-03-17T01:58:51;9.47;;;7.67;;
14688;SDS011;7432;48.728;9.154;2023-03-17T02:01:22;8.10;;;6.70;;
14688;SDS011;7432;48.728;9.154;2023-03-17T02:03:54;7.93;;;7.23;;
14688;SDS011;7432;48.728;9.154;2023-03-17T02:06:21;7.43;;;6.73;;
14688;SDS011;7432;48.728;9.154;2023-03-17T02:08:48;7.27;;;6.60;;
14688;SDS011;7432;48.728;9.154;2023-03-17T02:11:14;6.97;;;6.27;;
14688;SDS011;7432;48.728;9.154;2023-03-17T02:13:41;7.10;;;6.50;;
14688;SDS011;7432;48.728;9.154;2023-03-17T02:16:11;7.20;;;6.60;;
14688;SDS011;7432;48.728;9.154;2023-03-17T02:18:41;8.00;;;7.30;;
14688;SDS011;7432;48.728;9.154;2023-03-17T02:24:07;8.87;;;7.03;;
14688;SDS011;7432;48.728;9.154;2023-03-17T02:26:37;8.43;;;7.50;;
14688;SDS011;7432;48.728;9.154;2023-03-17T02:29:03;7.27;;;6.50;;
14688;SDS011;7432;48.728;9.154;2023-03-17T02:31:30;7.17;;;6.47;;
14688;SDS011;7432;48.728;9.154;2023-03-17T02:33:58;7.67;;;6.83;;
14688;SDS011;7432;48.728;9.154;2023-03-17T02:36:25;7.97;;;7.17;;
14688;SDS011;7432;48.728;9.154;2023-03-17T02:38:51;8.03;;;7.23;;
14688;SDS011;7432;48.728;9.154;2023-03-17T02:41:19;7.73;;;6.93;;
14688;SDS011;7432;48.728;9.154;2023-03-17T02:43:46;7.77;;;7.03;;
14688;SDS011;7432;48.728;9.154;2023-03-17T02:46:12;7.57;;;6.87;;
14688;SDS011;7432;48.728;9.154;2023-03-17T02:48:38;6.83;;;6.23;;
14688;SDS011;7432;48.728;9.154;2023-03-17T02:51:06;8.23;;;7.53;;
14688;SDS011;7432;48.728;9.154;2023-03-17T02:53:32;7.43;;;6.77;;
14688;SDS011;7432;48.728;9.154;2023-03-17T02:55:58;7.93;;;7.17;;
14688;SDS011;7432;48.728;9.154;2023-03-17T02:58:27;7.93;;;7.33;;
14688;SDS011;7432;48.728;9.154;2023-03-17T03:00:53;7.53;;;6.73;;
14688;SDS011;7432;48.728;9.154;2023-03-17T03:03:20;7.87;;;7.07;;
14688;SDS011;7432;48.728;9.154;2023-03-17T03:05:46;7.80;;;7.00;;
14688;SDS011;7432;48.728;9.154;2023-03-17T03:08:13;9.60;;;7.07;;
14688;SDS011;7432;48.728;9.154;2023-03-17T03:10:40;7.07;;;6.37;;
14688;SDS011;7432;48.728;9.154;2023-03-17T03:13:07;6.97;;;6.37;;
14688;SDS011;7432;48.728;9.154;2023-03-17T03:15:35;7.20;;;6.60;;
14688;SDS011;7432;48.728;9.154;2023-03-17T03:18:02;8.67;;;6.70;;
14688;SDS011;7432;48.728;9.154;2023-03-17T03:20:28;7.73;;;6.87;;
14688;SDS011;7432;48.728;9.154;2023-03-17T03:22:55;7.47;;;6.33;;
14688;SDS011;7432;48.728;9.154;2023-03-17T03:25:21;6.40;;;5.90;;
14688;SDS011;7432;48.728;9.154;2023-03-17T03:27:48;7.47;;;6.87;;
14688;SDS011;7432;48.728;9.154;2023-03-17T03:30:14;7.67;;;6.77;;
14688;SDS011;7432;48.728;9.154;2023-03-17T03:32:42;7.57;;;6.87;;
14688;SDS011;7432;48.728;9.154;2023-03-17T03:35:09;7.53;;;6.77;;
14688;SDS011;7432;48.728;9.154;2023-03-17T03:37:35;7.50;;;6.87;;
14688;SDS011;7432;48.728;9.154;2023-03-17T03:40:02;7.70;;;6.90;;
14688;SDS011;7432;48.728;9.154;2023-03-17T03:42:28;7.27;;;6.60;;
14688;SDS011;7432;48.728;9.154;2023-03-17T03:44:55;7.20;;;6.50;;
14688;SDS011;7432;48.728;9.154;2023-03-17T03:47:21;8.13;;;7.33;;
14688;SDS011;7432;48.728;9.154;2023-03-17T03:49:49;6.93;;;6.20;;
14688;SDS011;7432;48.728;9.154;2023-03-17T03:52:15;9.00;;;8.20;;
14688;SDS011;7432;48.728;9.154;2023-03-17T03:54:41;8.27;;;7.57;;
14688;SDS011;7432;48.728;9.154;2023-03-17T03:57:08;7.53;;;6.83;;
14688;SDS011;7432;48.728;9.154;2023-03-17T03:59:34;7.60;;;6.80;;
14688;SDS011;7432;48.728;9.154;2023-03-17T04:02:01;8.20;;;7.20;;
14688;SDS011;7432;48.728;9.154;2023-03-17T04:04:27;7.30;;;6.70;;
14688;SDS011;7432;48.728;9.154;2023-03-17T04:06:55;8.03;;;7.33;;
14688;SDS011;7432;48.728;9.154;2023-03-17T04:09:21;7.40;;;6.70;;
14688;SDS011;7432;48.728;9.154;2023-03-17T04:11:47;8.87;;;7.70;;
14688;SDS011;7432;48.728;9.154;2023-03-17T04:14:14;7.70;;;7.07;;
14688;SDS011;7432;48.728;9.154;2023-03-17T04:16:40;9.50;;;7.20;;
14688;SDS011;7432;48.728;9.154;2023-03-17T04:19:06;7.77;;;7.00;;
14688;SDS011;7432;48.728;9.154;2023-03-17T04:21:33;8.50;;;7.70;;
14688;SDS011;7432;48.728;9.154;2023-03-17T04:24:01;8.53;;;7.73;;
14688;SDS011;7432;48.728;9.154;2023-03-17T04:26:29;8.00;;;7.30;;
14688;SDS011;7432;48.728;9.154;2023-03-17T04:28:55;8.43;;;7.07;;
14688;SDS011;7432;48.728;9.154;2023-03-17T04:31:22;7.83;;;7.10;;
14688;SDS011;7432;48.728;9.154;2023-03-17T04:33:48;8.13;;;7.37;;
14688;SDS011;7432;48.728;9.154;2023-03-17T04:36:16;8.60;;;7.80;;
14688;SDS011;7432;48.728;9.154;2023-03-17T04:38:44;7.50;;;6.87;;
14688;SDS011;7432;48.728;9.154;2023-03-17T04:41:12;7.90;;;7.30;;
14688;SDS011;7432;48.728;9.154;2023-03-17T04:43:39;7.77;;;6.93;;
14688;SDS011;7432;48.728;9.154;2023-03-17T04:46:06;8.20;;;6.87;;
14688;SDS011;7432;48.728;9.154;2023-03-17T04:48:32;7.23;;;6.63;;
14688;SDS011;7432;48.728;9.154;2023-03-17T04:50:59;9.33;;;7.50;;
14688;SDS011;7432;48.728;9.154;2023-03-17T04:53:25;7.97;;;7.17;;
14688;SDS011;7432;48.728;9.154;2023-03-17T04:55:52;7.50;;;6.80;;
14688;SDS011;7432;48.728;9.154;2023-03-17T04:58:20;7.43;;;6.83;;
14688;SDS011;7432;48.728;9.154;2023-03-17T05:00:46;8.97;;;7.07;;
14688;SDS011;7432;48.728;9.154;2023-03-17T05:03:13;7.73;;;6.97;;
14688;SDS011;7432;48.728;9.154;2023-03-17T05:05:40;7.63;;;6.50;;
14688;SDS011;7432;48.728;9.154;2023-03-17T05:08:07;6.90;;;6.30;;
14688;SDS011;7432;48.728;9.154;2023-03-17T05:10:33;9.37;;;6.70;;
14688;SDS011;7432;48.728;9.154;2023-03-17T05:13:00;7.47;;;6.67;;
14688;SDS011;7432;48.728;9.154;2023-03-17T05:15:27;8.20;;;7.30;;
14688;SDS011;7432;48.728;9.154;2023-03-17T05:17:54;7.77;;;6.43;;
14688;SDS011;7432;48.728;9.154;2023-03-17T05:20:21;7.90;;;7.10;;
14688;SDS011;7432;48.728;9.154;2023-03-17T05:22:47;7.57;;;6.43;;
14688;SDS011;7432;48.728;9.154;2023-03-17T05:25:14;8.10;;;7.30;;
14688;SDS011;7432;48.728;9.154;2023-03-17T05:27:40;7.73;;;7.03;;
14688;SDS011;7432;48.728;9.154;2023-03-17T05:30:08;7.83;;;7.23;;
14688;SDS011;7432;48.728;9.154;2023-03-17T05:32:36;8.37;;;7.40;;
14688;SDS011;7432;48.728;9.154;2023-03-17T05:35:03;7.97;;;7.17;;
14688;SDS011;7432;48.728;9.154;2023-03-17T05:37:30;7.20;;;6.50;;
14688;SDS011;7432;48.728;9.154;2023-03-17T05:39:56;9.07;;;7.90;;
14688;SDS011;7432;48.728;9.154;2023-03-17T05:42:23;8.13;;;7.43;;
14688;SDS011;7432;48.728;9.154;2023-03-17T05:44:50;8.40;;;7.60;;
14688;SDS011;7432;48.728;9.154;2023-03-17T05:47:17;8.00;;;7.30;;
14688;SDS011;7432;48.728;9.154;2023-03-17T05:49:45;8.50;;;7.63;;
14688;SDS011;7432;48.728;9.154;2023-03-17T05:52:11;8.07;;;6.70;;
14688;SDS011;7432;48.728;9.154;2023-03-17T05:54:38;7.43;;;6.73;;
14688;SDS011;7432;48.728;9.154;2023-03-17T05:57:04;6.40;;;5.80;;
14688;SDS011;7432;48.728;9.154;2023-03-17T05:59:31;7.03;;;6.40;;
14688;SDS011;7432;48.728;9.154;2023-03-17T06:01:58;7.93;;;7.13;;
14688;SDS011;7432;48.728;9.154;2023-03-17T06:04:24;8.37;;;6.27;;
14688;SDS011;7432;48.728;9.154;2023-03-17T06:06:52;6.93;;;6.30;;
14688;SDS011;7432;48.728;9.154;2023-03-17T06:09:18;6.67;;;6.17;;
14688;SDS011;7432;48.728;9.154;2023-03-17T06:11:45;6.53;;;5.90;;
14688;SDS011;7432;48.728;9.154;2023-03-17T06:14:11;7.00;;;6.30;;
14688;SDS011;7432;48.728;9.154;2023-03-17T06:16:38;6.80;;;6.30;;
14688;SDS011;7432;48.728;9.154;2023-03-17T06:19:05;6.87;;;6.37;;
14688;SDS011;7432;48.728;9.154;2023-03-17T06:21:31;7.07;;;6.47;;
14688;SDS011;7432;48.728;9.154;2023-03-17T06:23:59;7.30;;;6.60;;
14688;SDS011;7432;48.728;9.154;2023-03-17T06:26:25;7.13;;;6.43;;
14688;SDS011;7432;48.728;9.154;2023-03-17T06:28:52;8.07;;;6.60;;
14688;SDS011;7432;48.728;9.154;2023-03-17T06:31:18;7.27;;;6.67;;
14688;SDS011;7432;48.728;9.154;2023-03-17T06:33:46;8.17;;;7.53;;
14688;SDS011;7432;48.728;9.154;2023-03-17T06:36:12;7.87;;;7.13;;
14688;SDS011;7432;48.728;9.154;2023-03-17T06:38:39;7.60;;;6.73;;
14688;SDS011;7432;48.728;9.154;2023-03-17T06:41:07;6.83;;;6.30;;
14688;SDS011;7432;48.728;9.154;2023-03-17T06:43:33;7.53;;;6.83;;
14688;SDS011;7432;48.728;9.154;2023-03-17T06:46:00;6.13;;;5.60;;
14688;SDS011;7432;48.728;9.154;2023-03-17T06:48:27;6.47;;;5.87;;
14688;SDS011;7432;48.728;9.154;2023-03-17T06:50:53;5.97;;;5.57;;
14688;SDS011;7432;48.728;9.154;2023-03-17T06:53:20;6.47;;;5.87;;
14688;SDS011;7432;48.728;9.154;2023-03-17T06:55:46;5.83;;;5.23;;
14688;SDS011;7432;48.728;9.154;2023-03-17T06:58:14;6.50;;;5.90;;
14688;SDS011;7432;48.728;9.154;2023-03-17T07:00:41;6.60;;;6.10;;
14688;SDS011;7432;48.728;9.154;2023-03-17T07:03:09;6.80;;;6.20;;
14688;SDS011;7432;48.728;9.154;2023-03-17T07:05:36;6.87;;;6.23;;
14688;SDS011;7432;48.728;9.154;2023-03-17T07:08:03;6.50;;;6.00;;
14688;SDS011;7432;48.728;9.154;2023-03-17T07:10:30;6.23;;;5.73;;
14688;SDS011;7432;48.728;9.154;2023-03-17T07:12:57;5.73;;;5.33;;
14688;SDS011;7432;48.728;9.154;2023-03-17T07:15:24;6.73;;;6.30;;
14688;SDS011;7432;48.728;9.154;2023-03-17T07:17:51;6.23;;;5.73;;
14688;SDS011;7432;48.728;9.154;2023-03-17T07:20:18;6.67;;;6.17;;
14688;SDS011;7432;48.728;9.154;2023-03-17T07:22:45;7.03;;;5.97;;
14688;SDS011;7432;48.728;9.154;2023-03-17T07:25:11;7.30;;;6.53;;
14688;SDS011;7432;48.728;9.154;2023-03-17T07:27:38;7.40;;;6.70;;
14688;SDS011;7432;48.728;9.154;2023-03-17T07:30:05;7.57;;;6.63;;
14688;SDS011;7432;48.728;9.154;2023-03-17T07:32:33;6.53;;;5.87;;
14688;SDS011;7432;48.728;9.154;2023-03-17T07:35:00;7.70;;;4.93;;
14688;SDS011;7432;48.728;9.154;2023-03-17T07:37:26;7.20;;;6.50;;
14688;SDS011;7432;48.728;9.154;2023-03-17T07:39:53;6.70;;;6.10;;
14688;SDS011;7432;48.728;9.154;2023-03-17T07:42:20;6.53;;;6.07;;
14688;SDS011;7432;48.728;9.154;2023-03-17T07:44:46;6.37;;;5.87;;
14688;SDS011;7432;48.728;9.154;2023-03-17T07:47:13;7.00;;;6.50;;
14688;SDS011;7432;48.728;9.154;2023-03-17T07:49:41;6.67;;;6.17;;
14688;SDS011;7432;48.728;9.154;2023-03-17T07:52:08;6.00;;;5.50;;
14688;SDS011;7432;48.728;9.154;2023-03-17T07:54:35;6.33;;;5.83;;
14688;SDS011;7432;48.728;9.154;2023-03-17T07:57:02;6.80;;;6.23;;
14688;SDS011;7432;48.728;9.154;2023-03-17T07:59:28;6.60;;;6.00;;
14688;SDS011;7432;48.728;9.154;2023-03-17T08:01:55;6.37;;;5.87;;
14688;SDS011;7432;48.728;9.154;2023-03-17T08:04:23;6.10;;;5.60;;
14688;SDS011;7432;48.728;9.154;2023-03-17T08:06:51;6.57;;;5.90;;
14688;SDS011;7432;48.728;9.154;2023-03-17T08:09:19;6.47;;;6.00;;
14688;SDS011;7432;48.728;9.154;2023-03-17T08:11:46;6.10;;;5.70;;
14688;SDS011;7432;48.728;9.154;2023-03-17T08:14:13;5.85;;;5.45;;
14688;SDS011;7432;48.728;9.154;2023-03-17T08:16:39;6.72;;;6.30;;
14688;SDS011;7432;48.728;9.154;2023-03-17T08:19:06;6.43;;;6.03;;
14688;SDS011;7432;48.728;9.154;2023-03-17T08:21:34;8.75;;;8.05;;
14688;SDS011;7432;48.728;9.154;2023-03-17T08:24:02;6.75;;;6.30;;
14688;SDS011;7432;48.728;9.154;2023-03-17T08:26:29;7.05;;;6.45;;
14688;SDS011;7432;48.728;9.154;2023-03-17T08:28:56;7.47;;;6.95;;
14688;SDS011;7432;48.728;9.154;2023-03-17T08:31:22;18.45;;;8.00;;
14688;SDS011;7432;48.728;9.154;2023-03-17T08:33:49;17.75;;;7.18;;
14688;SDS011;7432;48.728;9.154;2023-03-17T08:36:17;7.45;;;6.13;;
14688;SDS011;7432;48.728;9.154;2023-03-17T08:38:45;6.85;;;6.22;;
14688;SDS011;7432;48.728;9.154;2023-03-17T08:41:14;7.10;;;6.50;;
14688;SDS011;7432;48.728;9.154;2023-03-17T08:43:43;6.50;;;6.10;;
14688;SDS011;7432;48.728;9.154;2023-03-17T08:46:12;7.30;;;6.70;;
14688;SDS011;7432;48.728;9.154;2023-03-17T08:48:41;6.75;;;6.30;;
14688;SDS011;7432;48.728;9.154;2023-03-17T08:51:09;7.05;;;6.35;;
14688;SDS011;7432;48.728;9.154;2023-03-17T08:53:35;7.10;;;6.60;;
14688;SDS011;7432;48.728;9.154;2023-03-17T08:56:02;6.75;;;6.28;;
14688;SDS011;7432;48.728;9.154;2023-03-17T08:58:32;6.88;;;6.43;;
14688;SDS011;7432;48.728;9.154;2023-03-17T09:00:59;7.30;;;6.90;;
14688;SDS011;7432;48.728;9.154;2023-03-17T09:03:27;7.65;;;7.15;;
14688;SDS011;7432;48.728;9.154;2023-03-17T09:05:54;7.15;;;6.75;;
14688;SDS011;7432;48.728;9.154;2023-03-17T09:08:22;7.65;;;7.13;;
14688;SDS011;7432;48.728;9.154;2023-03-17T09:10:49;7.60;;;7.10;;
14688;SDS011;7432;48.728;9.154;2023-03-17T09:13:16;7.45;;;7.00;;
14688;SDS011;7432;48.728;9.154;2023-03-17T09:15:44;7.07;;;6.57;;
14688;SDS011;7432;48.728;9.154;2023-03-17T09:18:10;7.45;;;6.95;;
14688;SDS011;7432;48.728;9.154;2023-03-17T09:20:38;7.65;;;7.18;;
14688;SDS011;7432;48.728;9.154;2023-03-17T09:23:05;7.68;;;7.00;;
14688;SDS011;7432;48.728;9.154;2023-03-17T09:25:33;7.88;;;7.25;;
14688;SDS011;7432;48.728;9.154;2023-03-17T09:27:59;7.47;;;6.90;;
14688;SDS011;7432;48.728;9.154;2023-03-17T09:30:26;7.30;;;6.90;;
14688;SDS011;7432;48.728;9.154;2023-03-17T09:32:53;7.70;;;7.20;;
14688;SDS011;7432;48.728;9.154;2023-03-17T09:35:20;8.05;;;7.50;;
14688;SDS011;7432;48.728;9.154;2023-03-17T09:37:46;7.70;;;7.30;;
14688;SDS011;7432;48.728;9.154;2023-03-17T09:40:14;7.70;;;7.30;;
14688;SDS011;7432;48.728;9.154;2023-03-17T09:42:46;7.20;;;6.80;;
14688;SDS011;7432;48.728;9.154;2023-03-17T09:45:22;7.82;;;7.43;;
14688;SDS011;7432;48.728;9.154;2023-03-17T09:48:02;7.60;;;7.15;;
14688;SDS011;7432;48.728;9.154;2023-03-17T09:50:43;7.90;;;7.30;;
14688;SDS011;7432;48.728;9.154;2023-03-17T09:53:15;7.82;;;7.32;;
14688;SDS011;7432;48.728;9.154;2023-03-17T09:55:45;7.68;;;7.18;;
14688;SDS011;7432;48.728;9.154;2023-03-17T09:58:15;7.80;;;7.30;;
14688;SDS011;7432;48.728;9.154;2023-03-17T10:00:46;7.45;;;6.85;;
14688;SDS011;7432;48.728;9.154;2023-03-17T10:03:14;7.70;;;7.22;;
14688;SDS011;7432;48.728;9.154;2023-03-17T10:05:41;7.72;;;7.32;;
14688;SDS011;7432;48.728;9.154;2023-03-17T10:08:10;7.57;;;7.07;;
14688;SDS011;7432;48.728;9.154;2023-03-17T10:10:41;7.03;;;6.60;;
14688;SDS011;7432;48.728;9.154;2023-03-17T10:13:13;7.55;;;7.05;;
14688;SDS011;7432;48.728;9.154;2023-03-17T10:15:48;7.63;;;7.10;;
14688;SDS011;7432;48.728;9.154;2023-03-17T10:18:22;7.00;;;6.50;;
14688;SDS011;7432;48.728;9.154;2023-03-17T10:20:52;7.28;;;6.82;;
14688;SDS011;7432;48.728;9.154;2023-03-17T10:23:23;7.18;;;6.78;;
14688;SDS011;7432;48.728;9.154;2023-03-17T10:25:52;7.53;;;7.03;;
14688;SDS011;7432;48.728;9.154;2023-03-17T10:28:23;7.50;;;7.00;;
14688;SDS011;7432;48.728;9.154;2023-03-17T10:30:53;7.00;;;6.60;;
14688;SDS011;7432;48.728;9.154;2023-03-17T10:33:28;7.38;;;6.97;;
14688;SDS011;7432;48.728;9.154;2023-03-17T10:35:55;7.25;;;6.85;;
14688;SDS011;7432;48.728;9.154;2023-03-17T10:38:21;7.53;;;7.00;;
14688;SDS011;7432;48.728;9.154;2023-03-17T10:40:53;7.43;;;6.97;;
14688;SDS011;7432;48.728;9.154;2023-03-17T10:43:24;7.00;;;6.60;;
14688;SDS011;7432;48.728;9.154;2023-03-17T10:45:57;7.03;;;6.50;;
14688;SDS011;7432;48.728;9.154;2023-03-17T10:48:25;6.43;;;6.03;;
14688;SDS011;7432;48.728;9.154;2023-03-17T10:50:54;7.40;;;6.93;;
14688;SDS011;7432;48.728;9.154;2023-03-17T10:53:22;7.07;;;6.68;;
14688;SDS011;7432;48.728;9.154;2023-03-17T10:55:53;7.22;;;6.75;;
14688;SDS011;7432;48.728;9.154;2023-03-17T10:58:34;7.18;;;6.78;;
14688;SDS011;7432;48.728;9.154;2023-03-17T11:01:04;6.93;;;6.53;;
14688;SDS011;7432;48.728;9.154;2023-03-17T11:03:34;7.38;;;6.78;;
14688;SDS011;7432;48.728;9.154;2023-03-17T11:06:05;6.72;;;6.32;;
14688;SDS011;7432;48.728;9.154;2023-03-17T11:08:34;6.05;;;5.65;;
14688;SDS011;7432;48.728;9.154;2023-03-17T11:11:06;6.97;;;6.40;;
14688;SDS011;7432;48.728;9.154;2023-03-17T11:13:34;6.55;;;6.20;;
14688;SDS011;7432;48.728;9.154;2023-03-17T11:16:05;7.18;;;6.78;;
14688;SDS011;7432;48.728;9.154;2023-03-17T11:18:35;6.85;;;6.35;;
14688;SDS011;7432;48.728;9.154;2023-03-17T11:21:05;7.13;;;6.63;;
14688;SDS011;7432;48.728;9.154;2023-03-17T11:23:37;7.70;;;7.10;;
14688;SDS011;7432;48.728;9.154;2023-03-17T11:29:21;7.43;;;6.95;;
14688;SDS011;7432;48.728;9.154;2023-03-17T11:31:57;7.72;;;7.22;;
14688;SDS011;7432;48.728;9.154;2023-03-17T11:34:34;7.82;;;7.30;;
14688;SDS011;7432;48.728;9.154;2023-03-17T11:37:12;7.15;;;6.65;;
14688;SDS011;7432;48.728;9.154;2023-03-17T11:39:50;8.18;;;7.53;;
14688;SDS011;7432;48.728;9.154;2023-03-17T11:42:22;8.10;;;7.38;;
14688;SDS011;7432;48.728;9.154;2023-03-17T11:45:12;7.80;;;7.18;;
14688;SDS011;7432;48.728;9.154;2023-03-17T11:50:43;7.38;;;6.60;;
14688;SDS011;7432;48.728;9.154;2023-03-17T11:53:25;7.03;;;6.55;;
14688;SDS011;7432;48.728;9.154;2023-03-17T11:56:09;7.32;;;6.78;;
14688;SDS011;7432;48.728;9.154;2023-03-17T11:58:42;7.05;;;6.50;;
14688;SDS011;7432;48.728;9.154;2023-03-17T12:01:13;6.43;;;6.03;;
14688;SDS011;7432;48.728;9.154;2023-03-17T12:03:43;7.90;;;7.40;;
14688;SDS011;7432;48.728;9.154;2023-03-17T12:06:13;6.80;;;6.40;;
14688;SDS011;7432;48.728;9.154;2023-03-17T12:08:47;6.63;;;6.13;;
14688;SDS011;7432;48.728;9.154;2023-03-17T12:11:18;6.50;;;6.10;;
14688;SDS011;7432;48.728;9.154;2023-03-17T12:13:49;7.20;;;6.65;;
14688;SDS011;7432;48.728;9.154;2023-03-17T12:16:18;7.22;;;6.72;;
14688;SDS011;7432;48.728;9.154;2023-03-17T12:18:54;7.70;;;7.20;;
14688;SDS011;7432;48.728;9.154;2023-03-17T12:21:26;7.78;;;7.00;;
14688;SDS011;7432;48.728;9.154;2023-03-17T12:24:00;7.28;;;6.88;;
14688;SDS011;7432;48.728;9.154;2023-03-17T12:26:35;7.45;;;6.90;;
14688;SDS011;7432;48.728;9.154;2023-03-17T12:29:04;6.90;;;6.50;;
14688;SDS011;7432;48.728;9.154;2023-03-17T12:31:38;6.40;;;5.90;;
14688;SDS011;7432;48.728;9.154;2023-03-17T12:34:11;7.15;;;6.60;;
14688;SDS011;7432;48.728;9.154;2023-03-17T12:36:44;7.45;;;6.90;;
14688;SDS011;7432;48.728;9.154;2023-03-17T12:39:13;6.70;;;6.20;;
14688;SDS011;7432;48.728;9.154;2023-03-17T12:41:43;6.53;;;6.13;;
14688;SDS011;7432;48.728;9.154;2023-03-17T12:44:27;6.88;;;6.45;;
14688;SDS011;7432;48.728;9.154;2023-03-17T12:47:06;6.38;;;5.97;;
14688;SDS011;7432;48.728;9.154;2023-03-17T12:49:51;6.35;;;5.72;;
14688;SDS011;7432;48.728;9.154;2023-03-17T12:52:35;7.25;;;6.63;;
14688;SDS011;7432;48.728;9.154;2023-03-17T12:55:12;7.60;;;7.00;;
14688;SDS011;7432;48.728;9.154;2023-03-17T12:57:41;6.88;;;6.38;;
14688;SDS011;7432;48.728;9.154;2023-03-17T13:00:18;7.05;;;6.55;;
14688;SDS011;7432;48.728;9.154;2023-03-17T13:02:50;6.65;;;6.25;;
14688;SDS011;7432;48.728;9.154;2023-03-17T13:05:32;6.38;;;5.97;;
14688;SDS011;7432;48.728;9.154;2023-03-17T13:08:02;7.10;;;6.38;;
14688;SDS011;7432;48.728;9.154;2023-03-17T13:10:38;7.50;;;6.85;;
14688;SDS011;7432;48.728;9.154;2023-03-17T13:13:09;7.40;;;7.00;;
14688;SDS011;7432;48.728;9.154;2023-03-17T13:15:54;7.00;;;6.47;;
14688;SDS011;7432;48.728;9.154;2023-03-17T13:18:28;7.20;;;6.70;;
14688;SDS011;7432;48.728;9.154;2023-03-17T13:21:12;6.60;;;6.10;;
14688;SDS011;7432;48.728;9.154;2023-03-17T13:23:42;6.90;;;6.50;;
14688;SDS011;7432;48.728;9.154;2023-03-17T13:26:12;7.05;;;6.65;;
14688;SDS011;7432;48.728;9.154;2023-03-17T13:28:44;7.05;;;6.65;;
14688;SDS011;7432;48.728;9.154;2023-03-17T13:31:13;6.95;;;6.55;;
14688;SDS011;7432;48.728;9.154;2023-03-17T13:33:54;7.65;;;7.05;;
14688;SDS011;7432;48.728;9.154;2023-03-17T13:36:31;6.30;;;5.90;;
14688;SDS011;7432;48.728;9.154;2023-03-17T13:42:10;7.18;;;6.63;;
14688;SDS011;7432;48.728;9.154;2023-03-17T13:45:02;7.32;;;6.93;;
14688;SDS011;7432;48.728;9.154;2023-03-17T13:47:35;7.18;;;6.68;;
14688;SDS011;7432;48.728;9.154;2023-03-17T13:50:06;7.60;;;7.13;;
14688;SDS011;7432;48.728;9.154;2023-03-17T13:52:38;7.45;;;6.88;;
14688;SDS011;7432;48.728;9.154;2023-03-17T13:58:16;6.43;;;6.03;;
14688;SDS011;7432;48.728;9.154;2023-03-17T14:00:53;6.53;;;6.13;;
14688;SDS011;7432;48.728;9.154;2023-03-17T14:03:26;6.88;;;6.47;;
14688;SDS011;7432;48.728;9.154;2023-03-17T14:05:59;7.13;;;6.63;;
14688;SDS011;7432;48.728;9.154;2023-03-17T14:08:30;6.65;;;6.22;;
14688;SDS011;7432;48.728;9.154;2023-03-17T14:10:59;6.05;;;5.75;;
14688;SDS011;7432;48.728;9.154;2023-03-17T14:13:30;6.18;;;5.88;;
14688;SDS011;7432;48.728;9.154;2023-03-17T14:16:13;5.95;;;5.50;;
14688;SDS011;7432;48.728;9.154;2023-03-17T14:18:44;6.57;;;6.25;;
14688;SDS011;7432;48.728;9.154;2023-03-17T14:21:20;6.28;;;5.88;;
14688;SDS011;7432;48.728;9.154;2023-03-17T14:23:52;6.20;;;5.90;;
14688;SDS011;7432;48.728;9.154;2023-03-17T14:26:20;6.60;;;6.10;;
14688;SDS011;7432;48.728;9.154;2023-03-17T14:28:49;5.80;;;5.50;;
14688;SDS011;7432;48.728;9.154;2023-03-17T14:31:19;5.60;;;5.30;;
14688;SDS011;7432;48.728;9.154;2023-03-17T14:33:49;6.07;;;5.53;;
14688;SDS011;7432;48.728;9.154;2023-03-17T14:36:17;6.30;;;5.90;;
14688;SDS011;7432;48.728;9.154;2023-03-17T14:38:45;6.15;;;5.75;;
14688;SDS011;7432;48.728;9.154;2023-03-17T14:41:15;6.13;;;5.75;;
14688;SDS011;7432;48.728;9.154;2023-03-17T14:43:43;6.38;;;5.97;;
14688;SDS011;7432;48.728;9.154;2023-03-17T14:46:13;7.10;;;6.47;;
14688;SDS011;7432;48.728;9.154;2023-03-17T14:48:42;5.97;;;5.68;;
14688;SDS011;7432;48.728;9.154;2023-03-17T14:51:14;6.20;;;5.90;;
14688;SDS011;7432;48.728;9.154;2023-03-17T14:53:49;6.50;;;6.07;;
14688;SDS011;7432;48.728;9.154;2023-03-17T14:56:20;5.75;;;5.38;;
14688;SDS011;7432;48.728;9.154;2023-03-17T14:58:48;6.85;;;6.28;;
14688;SDS011;7432;48.728;9.154;2023-03-17T15:01:18;5.72;;;5.43;;
14688;SDS011;7432;48.728;9.154;2023-03-17T15:03:52;6.15;;;5.68;;
14688;SDS011;7432;48.728;9.154;2023-03-17T15:06:22;6.50;;;6.00;;
14688;SDS011;7432;48.728;9.154;2023-03-17T15:08:49;5.82;;;5.43;;
14688;SDS011;7432;48.728;9.154;2023-03-17T15:11:20;5.28;;;4.97;;
14688;SDS011;7432;48.728;9.154;2023-03-17T15:13:49;5.53;;;5.23;;
14688;SDS011;7432;48.728;9.154;2023-03-17T15:16:22;6.30;;;5.80;;
14688;SDS011;7432;48.728;9.154;2023-03-17T15:18:54;6.07;;;5.57;;
14688;SDS011;7432;48.728;9.154;2023-03-17T15:21:30;6.05;;;5.75;;
14688;SDS011;7432;48.728;9.154;2023-03-17T15:24:02;6.38;;;5.90;;
14688;SDS011;7432;48.728;9.154;2023-03-17T15:26:30;5.85;;;5.35;;
14688;SDS011;7432;48.728;9.154;2023-03-17T15:28:57;6.47;;;5.90;;
14688;SDS011;7432;48.728;9.154;2023-03-17T15:31:26;5.97;;;5.68;;